createdAt,value
2023-05-11T00:00:26.494Z,4.13
2023-05-11T00:02:53.847Z,4.35
2023-05-11T00:05:21.095Z,5.10
2023-05-11T00:07:48.200Z,4.57
2023-05-11T00:10:15.474Z,4.45
2023-05-11T00:12:42.618Z,4.53
2023-05-11T00:15:09.916Z,4.07
2023-05-11T00:17:37.004Z,4.53
2023-05-11T00:20:04.335Z,4.03
2023-05-11T00:22:31.607Z,5.05
2023-05-11T00:24:58.786Z,4.20
2023-05-11T00:27:25.989Z,3.85
2023-05-11T00:29:53.085Z,4.22
2023-05-11T00:32:20.354Z,4.60
2023-05-11T00:34:47.648Z,4.45
2023-05-11T00:37:14.742Z,3.88
2023-05-11T00:39:41.852Z,4.38
2023-05-11T00:42:09.017Z,4.53
2023-05-11T00:44:36.080Z,4.43
2023-05-11T00:47:03.361Z,4.28
2023-05-11T00:49:31.274Z,4.07
2023-05-11T00:52:02.744Z,4.18
2023-05-11T00:54:29.960Z,3.90
2023-05-11T00:56:57.072Z,3.35
2023-05-11T00:59:24.615Z,3.78
2023-05-11T01:01:51.826Z,3.92
2023-05-11T01:04:19.320Z,5.05
2023-05-11T01:07:07.540Z,3.90
2023-05-11T01:09:53.212Z,3.92
2023-05-11T01:12:20.334Z,4.45
2023-05-11T01:14:52.018Z,3.70
2023-05-11T01:19:56.741Z,3.55
2023-05-11T01:22:23.880Z,3.63
2023-05-11T01:24:56.695Z,3.97
2023-05-11T01:27:40.985Z,4.07
2023-05-11T01:30:26.901Z,3.97
2023-05-11T01:33:00.569Z,4.47
2023-05-11T01:35:28.377Z,3.75
2023-05-11T01:37:58.250Z,4.18
2023-05-11T01:40:26.825Z,3.90
2023-05-11T01:42:59.316Z,3.65
2023-05-11T01:45:27.365Z,3.70
2023-05-11T01:47:55.981Z,4.50
2023-05-11T01:50:25.159Z,4.10
2023-05-11T01:52:53.513Z,3.80
2023-05-11T01:55:22.040Z,3.90
2023-05-11T01:57:54.196Z,3.65
2023-05-11T02:00:21.712Z,3.67
2023-05-11T02:02:49.594Z,3.95
2023-05-11T02:05:19.613Z,3.67
2023-05-11T02:07:48.990Z,3.92
2023-05-11T02:10:17.301Z,3.80
2023-05-11T02:12:46.641Z,3.72
2023-05-11T02:15:14.199Z,3.63
2023-05-11T02:17:41.846Z,3.85
2023-05-11T02:20:09.953Z,4.13
2023-05-11T02:22:37.777Z,3.60
2023-05-11T02:25:05.381Z,4.45
2023-05-11T02:27:33.037Z,4.68
2023-05-11T02:30:00.247Z,4.15
2023-05-11T02:32:29.860Z,4.07
2023-05-11T02:35:01.666Z,3.73
2023-05-11T02:37:29.569Z,3.60
2023-05-11T02:40:00.050Z,3.35
2023-05-11T02:45:00.101Z,3.85
2023-05-11T02:47:28.518Z,3.67
2023-05-11T02:49:56.423Z,3.63
2023-05-11T02:52:24.719Z,3.75
2023-05-11T02:54:52.425Z,3.28
2023-05-11T02:57:19.946Z,3.50
2023-05-11T02:59:47.310Z,3.30
2023-05-11T03:02:14.521Z,4.43
2023-05-11T03:04:42.087Z,3.20
2023-05-11T03:07:09.484Z,3.42
2023-05-11T03:09:36.731Z,3.45
2023-05-11T03:12:04.514Z,3.40
2023-05-11T03:14:33.622Z,3.58
2023-05-11T03:17:01.648Z,3.83
2023-05-11T03:19:29.555Z,3.45
2023-05-11T03:21:57.292Z,3.33
2023-05-11T03:24:25.048Z,3.83
2023-05-11T03:26:53.267Z,2.85
2023-05-11T03:29:21.015Z,3.63
2023-05-11T03:31:51.026Z,3.53
2023-05-11T03:34:18.363Z,4.05
2023-05-11T03:36:46.147Z,3.40
2023-05-11T03:39:13.365Z,4.05
2023-05-11T03:41:41.249Z,3.20
2023-05-11T03:44:09.138Z,3.60
2023-05-11T03:46:39.970Z,3.20
2023-05-11T03:49:08.023Z,3.40
2023-05-11T03:51:36.000Z,3.05
2023-05-11T03:54:03.193Z,3.78
2023-05-11T03:56:30.580Z,3.60
2023-05-11T03:58:57.792Z,3.45
2023-05-11T04:01:24.981Z,3.22
2023-05-11T04:03:52.934Z,3.40
2023-05-11T04:06:20.812Z,3.58
2023-05-11T04:08:48.053Z,3.53
2023-05-11T04:11:15.330Z,3.25
2023-05-11T04:13:42.479Z,3.58
2023-05-11T04:16:09.594Z,3.00
2023-05-11T04:18:36.810Z,2.97
2023-05-11T04:21:04.004Z,3.28
2023-05-11T04:23:31.200Z,3.38
2023-05-11T04:25:58.300Z,3.28
2023-05-11T04:28:27.696Z,3.00
2023-05-11T04:30:55.218Z,3.10
2023-05-11T04:33:22.511Z,3.22
2023-05-11T04:35:53.213Z,3.70
2023-05-11T04:38:20.859Z,3.83
2023-05-11T04:40:48.261Z,3.53
2023-05-11T04:43:15.609Z,3.40
2023-05-11T04:45:42.757Z,3.53
2023-05-11T04:48:09.882Z,3.13
2023-05-11T04:50:37.494Z,3.53
2023-05-11T04:53:04.601Z,3.47
2023-05-11T04:55:31.701Z,3.20
2023-05-11T04:57:58.814Z,3.15
2023-05-11T05:00:26.290Z,3.78
2023-05-11T05:02:53.385Z,3.60
2023-05-11T05:05:20.551Z,3.65
2023-05-11T05:07:47.813Z,3.17
2023-05-11T05:10:14.905Z,3.30
2023-05-11T05:12:42.003Z,2.88
2023-05-11T05:15:09.557Z,2.95
2023-05-11T05:17:36.695Z,3.65
2023-05-11T05:20:04.497Z,3.42
2023-05-11T05:22:32.015Z,3.58
2023-05-11T05:24:59.622Z,3.55
2023-05-11T05:27:26.784Z,3.78
2023-05-11T05:29:53.968Z,3.50
2023-05-11T05:32:21.140Z,4.05
2023-05-11T05:34:48.263Z,4.22
2023-05-11T05:37:15.378Z,3.90
2023-05-11T05:39:42.514Z,3.85
2023-05-11T05:42:09.664Z,3.53
2023-05-11T05:44:36.759Z,3.88
2023-05-11T05:47:03.917Z,4.05
2023-05-11T05:49:31.015Z,3.78
2023-05-11T05:51:58.165Z,4.30
2023-05-11T05:54:25.568Z,4.35
2023-05-11T05:56:52.670Z,3.47
2023-05-11T05:59:23.227Z,3.28
2023-05-11T06:01:51.503Z,4.53
2023-05-11T06:04:18.872Z,3.78
2023-05-11T06:06:46.537Z,3.70
2023-05-11T06:09:13.737Z,4.05
2023-05-11T06:11:41.283Z,4.07
2023-05-11T06:14:08.526Z,3.78
2023-05-11T06:16:35.640Z,4.10
2023-05-11T06:19:02.954Z,3.55
2023-05-11T06:21:30.145Z,4.00
2023-05-11T06:23:57.229Z,3.08
2023-05-11T06:26:25.260Z,3.85
2023-05-11T06:28:52.756Z,3.85
2023-05-11T06:31:20.216Z,3.60
2023-05-11T06:33:47.528Z,3.72
2023-05-11T06:36:14.698Z,3.25
2023-05-11T06:38:41.829Z,3.72
2023-05-11T06:41:11.387Z,4.15
2023-05-11T06:43:38.754Z,4.05
2023-05-11T06:46:07.040Z,3.90
2023-05-11T06:48:34.162Z,3.40
2023-05-11T06:51:01.445Z,3.10
2023-05-11T06:53:28.576Z,3.55
2023-05-11T06:55:56.119Z,3.35
2023-05-11T06:58:23.233Z,3.25
2023-05-11T07:00:50.388Z,3.50
2023-05-11T07:03:17.908Z,3.88
2023-05-11T07:05:45.028Z,3.97
2023-05-11T07:08:12.146Z,3.40
2023-05-11T07:10:39.310Z,4.07
2023-05-11T07:13:06.441Z,3.97
2023-05-11T07:15:33.648Z,3.58
2023-05-11T07:18:01.588Z,4.05
2023-05-11T07:20:28.769Z,3.50
2023-05-11T07:22:59.628Z,3.53
2023-05-11T07:25:26.857Z,3.42
2023-05-11T07:27:53.963Z,3.35
2023-05-11T07:30:21.459Z,4.18
2023-05-11T07:32:48.950Z,3.50
2023-05-11T07:35:16.375Z,3.38
2023-05-11T07:37:43.590Z,3.40
2023-05-11T07:40:11.150Z,3.45
2023-05-11T07:42:38.221Z,3.45
2023-05-11T07:45:05.622Z,3.53
2023-05-11T07:47:35.150Z,3.20
2023-05-11T07:50:03.908Z,3.53
2023-05-11T07:52:30.997Z,4.05
2023-05-11T07:54:58.139Z,3.83
2023-05-11T07:57:25.295Z,3.83
2023-05-11T07:59:52.420Z,3.75
2023-05-11T08:02:19.579Z,3.72
2023-05-11T08:04:47.073Z,4.03
2023-05-11T08:07:14.514Z,3.60
2023-05-11T08:09:41.585Z,3.50
2023-05-11T08:12:09.699Z,4.13
2023-05-11T08:14:37.668Z,3.42
2023-05-11T08:17:05.659Z,5.15
2023-05-11T08:19:32.851Z,3.33
2023-05-11T08:22:01.022Z,3.88
2023-05-11T08:24:28.097Z,3.80
2023-05-11T08:26:55.358Z,3.00
2023-05-11T08:29:22.431Z,3.22
2023-05-11T08:31:50.416Z,3.53
2023-05-11T08:34:20.087Z,3.40
2023-05-11T08:36:47.676Z,3.20
2023-05-11T08:39:24.687Z,3.25
2023-05-11T08:41:59.664Z,3.90
2023-05-11T08:44:27.358Z,3.58
2023-05-11T08:47:05.932Z,3.03
2023-05-11T08:49:41.647Z,3.20
2023-05-11T08:52:09.114Z,3.10
2023-05-11T08:54:36.224Z,3.35
2023-05-11T08:57:03.751Z,3.28
2023-05-11T08:59:31.251Z,4.57
2023-05-11T09:01:58.950Z,2.70
2023-05-11T09:04:27.207Z,3.30
2023-05-11T09:06:56.071Z,3.35
2023-05-11T09:09:23.143Z,3.15
2023-05-11T09:11:50.648Z,3.40
2023-05-11T09:14:17.829Z,3.22
2023-05-11T09:16:46.017Z,3.53
2023-05-11T09:19:15.770Z,3.80
2023-05-11T09:21:43.101Z,3.42
2023-05-11T09:24:13.466Z,3.33
2023-05-11T09:26:40.795Z,2.92
2023-05-11T09:29:08.018Z,3.47
2023-05-11T09:31:39.824Z,3.47
2023-05-11T09:34:10.945Z,2.90
2023-05-11T09:36:38.098Z,3.60
2023-05-11T09:39:05.496Z,3.25
2023-05-11T09:41:35.733Z,3.50
2023-05-11T09:44:08.776Z,3.22
2023-05-11T09:46:36.986Z,3.30
2023-05-11T09:49:04.459Z,3.30
2023-05-11T09:51:33.066Z,2.95
2023-05-11T09:54:01.001Z,3.45
2023-05-11T09:56:43.148Z,3.40
2023-05-11T09:59:10.239Z,2.75
2023-05-11T10:01:38.056Z,3.25
2023-05-11T10:04:22.312Z,2.60
2023-05-11T10:06:53.427Z,2.75
2023-05-11T10:09:24.569Z,3.00
2023-05-11T10:11:51.839Z,2.40
2023-05-11T10:14:19.685Z,3.08
2023-05-11T10:16:47.048Z,2.83
2023-05-11T10:19:14.557Z,2.35
2023-05-11T10:21:42.624Z,2.67
2023-05-11T10:24:10.848Z,3.05
2023-05-11T10:26:38.853Z,3.28
2023-05-11T10:29:06.119Z,3.08
2023-05-11T10:31:33.515Z,2.80
2023-05-11T10:34:01.935Z,2.85
2023-05-11T10:36:29.305Z,2.60
2023-05-11T10:38:56.575Z,3.22
2023-05-11T10:41:26.750Z,2.70
2023-05-11T10:43:54.011Z,3.22
2023-05-11T10:46:28.926Z,2.95
2023-05-11T10:49:16.163Z,2.60
2023-05-11T10:52:01.505Z,2.90
2023-05-11T10:54:43.829Z,2.92
2023-05-11T10:57:11.316Z,2.92
2023-05-11T10:59:50.519Z,2.70
2023-05-11T11:02:18.889Z,3.40
2023-05-11T11:04:47.096Z,3.17
2023-05-11T11:07:18.167Z,2.75
2023-05-11T11:10:00.496Z,3.35
2023-05-11T11:12:31.276Z,2.97
2023-05-11T11:15:01.451Z,2.80
2023-05-11T11:20:00.997Z,2.75
2023-05-11T11:22:41.449Z,2.78
2023-05-11T11:25:09.766Z,2.67
2023-05-11T11:27:45.931Z,3.08
2023-05-11T11:30:16.197Z,3.20
2023-05-11T11:32:45.504Z,2.50
2023-05-11T11:35:32.181Z,2.85
2023-05-11T11:38:03.155Z,2.60
2023-05-11T11:40:53.026Z,2.90
2023-05-11T11:43:20.343Z,2.75
2023-05-11T11:46:00.729Z,2.60
2023-05-11T11:48:35.794Z,2.75
2023-05-11T11:51:07.122Z,2.80
2023-05-11T11:53:37.395Z,2.33
2023-05-11T11:56:05.010Z,2.60
2023-05-11T11:58:45.162Z,2.30
2023-05-11T12:03:39.937Z,2.70
2023-05-11T12:06:08.153Z,3.05
2023-05-11T12:08:36.064Z,2.75
2023-05-11T12:11:03.843Z,3.15
2023-05-11T12:13:31.265Z,2.38
2023-05-11T12:16:12.219Z,2.75
2023-05-11T12:18:39.860Z,2.50
2023-05-11T12:21:07.226Z,2.50
2023-05-11T12:23:34.373Z,2.65
2023-05-11T12:26:04.791Z,2.45
2023-05-11T12:28:32.055Z,2.50
2023-05-11T12:31:00.634Z,2.45
2023-05-11T12:33:28.253Z,2.75
2023-05-11T12:35:56.277Z,2.75
2023-05-11T12:38:23.834Z,2.33
2023-05-11T12:40:51.615Z,2.42
2023-05-11T12:43:19.879Z,2.53
2023-05-11T12:45:47.330Z,3.30
2023-05-11T12:48:15.305Z,2.60
2023-05-11T12:50:42.818Z,2.65
2023-05-11T12:53:16.730Z,2.40
2023-05-11T12:55:43.871Z,2.58
2023-05-11T12:58:14.675Z,2.95
2023-05-11T13:00:55.381Z,2.50
2023-05-11T13:03:26.113Z,2.33
2023-05-11T13:05:54.308Z,3.00
2023-05-11T13:08:21.484Z,2.50
2023-05-11T13:10:48.596Z,2.70
2023-05-11T13:13:27.507Z,2.47
2023-05-11T13:15:54.462Z,2.28
2023-05-11T13:18:21.250Z,2.55
2023-05-11T13:20:48.647Z,2.55
2023-05-11T13:23:16.018Z,2.58
2023-05-11T13:25:48.870Z,2.20
2023-05-11T13:28:16.871Z,2.50
2023-05-11T13:30:44.271Z,2.10
2023-05-11T13:33:11.082Z,2.50
2023-05-11T13:35:42.284Z,2.50
2023-05-11T13:38:10.692Z,2.20
2023-05-11T13:40:37.906Z,2.33
2023-05-11T13:43:04.911Z,2.38
2023-05-11T13:45:31.645Z,2.30
2023-05-11T13:47:58.345Z,2.20
2023-05-11T13:50:26.233Z,2.50
2023-05-11T13:52:54.275Z,2.72
2023-05-11T13:55:21.595Z,3.22
2023-05-11T13:57:48.523Z,2.63
2023-05-11T14:00:15.937Z,2.75
2023-05-11T14:02:44.292Z,2.53
2023-05-11T14:05:11.377Z,3.00
2023-05-11T14:07:47.161Z,2.38
2023-05-11T14:10:15.693Z,2.33
2023-05-11T14:12:42.505Z,2.80
2023-05-11T14:15:10.009Z,3.75
2023-05-11T14:17:36.848Z,3.40
2023-05-11T14:20:04.552Z,3.33
2023-05-11T14:22:31.483Z,2.80
2023-05-11T14:24:58.564Z,2.72
2023-05-11T14:27:25.312Z,3.28
2023-05-11T14:29:52.272Z,2.80
2023-05-11T14:32:19.622Z,2.40
2023-05-11T14:34:47.301Z,2.90
2023-05-11T14:37:14.337Z,2.92
2023-05-11T14:39:42.958Z,2.53
2023-05-11T14:42:11.762Z,3.05
2023-05-11T14:44:39.557Z,2.72
2023-05-11T14:47:07.912Z,2.97
2023-05-11T14:49:34.827Z,2.78
2023-05-11T14:52:02.219Z,2.67
2023-05-11T14:54:28.925Z,3.05
2023-05-11T14:56:57.619Z,2.92
2023-05-11T14:59:25.900Z,2.67
2023-05-11T15:01:52.846Z,2.67
2023-05-11T15:04:20.699Z,2.70
2023-05-11T15:06:47.623Z,2.60
2023-05-11T15:09:14.586Z,2.42
2023-05-11T15:11:41.363Z,2.58
2023-05-11T15:14:08.128Z,2.67
2023-05-11T15:16:34.811Z,2.70
2023-05-11T15:19:01.706Z,2.22
2023-05-11T15:21:28.508Z,3.70
2023-05-11T15:23:58.085Z,3.17
2023-05-11T15:26:25.138Z,2.63
2023-05-11T15:28:51.888Z,2.55
2023-05-11T15:31:20.666Z,3.00
2023-05-11T15:33:47.436Z,3.00
2023-05-11T15:36:15.497Z,2.95
2023-05-11T15:38:43.364Z,3.00
2023-05-11T15:41:10.074Z,3.13
2023-05-11T15:43:36.845Z,2.97
2023-05-11T15:46:04.772Z,3.20
2023-05-11T15:48:31.654Z,2.88
2023-05-11T15:51:01.002Z,2.70
2023-05-11T15:53:28.710Z,3.50
2023-05-11T15:55:55.826Z,3.22
2023-05-11T15:58:23.378Z,3.08
2023-05-11T16:00:50.483Z,3.28
2023-05-11T16:03:17.659Z,2.80
2023-05-11T16:05:45.466Z,2.90
2023-05-11T16:08:13.391Z,2.65
2023-05-11T16:10:40.468Z,2.90
2023-05-11T16:13:07.624Z,3.22
2023-05-11T16:15:34.392Z,3.15
2023-05-11T16:18:04.900Z,3.00
2023-05-11T16:20:32.421Z,2.90
2023-05-11T16:23:00.594Z,3.20
2023-05-11T16:25:28.318Z,3.13
2023-05-11T16:27:55.264Z,3.22
2023-05-11T16:30:25.092Z,2.85
2023-05-11T16:32:54.576Z,3.15
2023-05-11T16:35:22.598Z,3.35
2023-05-11T16:37:49.285Z,3.40
2023-05-11T16:40:21.109Z,3.30
2023-05-11T16:42:49.104Z,3.53
2023-05-11T16:45:16.591Z,2.88
2023-05-11T16:47:45.335Z,3.67
2023-05-11T16:50:14.704Z,3.88
2023-05-11T16:52:42.915Z,3.20
2023-05-11T16:55:10.308Z,3.53
2023-05-11T16:57:37.168Z,5.18
2023-05-11T17:00:04.418Z,3.72
2023-05-11T17:02:31.486Z,3.92
2023-05-11T17:04:58.188Z,4.13
2023-05-11T17:07:27.469Z,4.15
2023-05-11T17:09:56.967Z,3.50
2023-05-11T17:12:24.173Z,3.17
2023-05-11T17:14:51.030Z,3.20
2023-05-11T17:17:17.832Z,3.53
2023-05-11T17:19:44.513Z,3.58
2023-05-11T17:22:11.776Z,3.22
2023-05-11T17:24:38.652Z,3.80
2023-05-11T17:27:05.873Z,3.70
2023-05-11T17:29:33.159Z,3.58
2023-05-11T17:32:00.000Z,3.90
2023-05-11T17:34:28.597Z,4.60
2023-05-11T17:36:56.745Z,4.60
2023-05-11T17:39:23.564Z,5.32
2023-05-11T17:41:50.218Z,5.00
2023-05-11T17:44:17.200Z,5.50
2023-05-11T17:46:43.866Z,5.28
2023-05-11T17:49:10.756Z,5.03
2023-05-11T17:51:39.112Z,5.85
2023-05-11T17:54:06.321Z,5.78
2023-05-11T17:56:33.908Z,5.80
2023-05-11T17:59:04.130Z,5.53
2023-05-11T18:04:00.833Z,5.25
2023-05-11T18:06:30.354Z,5.53
2023-05-11T18:08:58.862Z,5.22
2023-05-11T18:11:26.316Z,5.28
2023-05-11T18:13:55.144Z,5.55
2023-05-11T18:16:21.903Z,5.82
2023-05-11T18:18:50.407Z,7.18
2023-05-11T18:21:17.916Z,6.75
2023-05-11T18:23:45.845Z,7.57
2023-05-11T18:26:14.310Z,10.57
2023-05-11T18:28:41.013Z,14.02
2023-05-11T18:31:08.099Z,12.15
2023-05-11T18:33:37.469Z,11.27
2023-05-11T18:36:04.552Z,10.00
2023-05-11T18:38:33.213Z,9.65
2023-05-11T18:41:05.269Z,11.13
2023-05-11T18:43:34.295Z,9.55
2023-05-11T18:46:01.028Z,8.70
2023-05-11T18:48:28.245Z,10.05
2023-05-11T18:50:58.698Z,10.02
2023-05-11T18:53:25.682Z,7.53
2023-05-11T18:55:54.290Z,8.70
2023-05-11T18:58:22.177Z,8.77
2023-05-11T19:00:50.312Z,9.88
2023-05-11T19:03:20.837Z,10.15
2023-05-11T19:05:48.794Z,9.05
2023-05-11T19:08:15.620Z,8.15
2023-05-11T19:10:45.177Z,8.38
2023-05-11T19:13:13.061Z,7.88
2023-05-11T19:15:40.336Z,9.02
2023-05-11T19:18:07.190Z,8.07
2023-05-11T19:20:35.008Z,10.52
2023-05-11T19:23:02.075Z,20.83
2023-05-11T19:25:30.684Z,23.45
2023-05-11T19:27:57.648Z,22.98
2023-05-11T19:30:24.957Z,15.75
2023-05-11T19:32:51.892Z,13.40
2023-05-11T19:35:19.184Z,13.57
2023-05-11T19:37:48.543Z,9.98
2023-05-11T19:40:44.693Z,10.50
2023-05-11T19:43:07.576Z,8.55
2023-05-11T19:45:35.407Z,10.60
2023-05-11T19:48:02.451Z,15.55
2023-05-11T19:50:29.340Z,26.35
2023-05-11T19:52:57.050Z,44.67
2023-05-11T19:55:24.452Z,58.13
2023-05-11T19:57:51.813Z,72.82
2023-05-11T20:00:19.023Z,82.03
2023-05-11T20:02:46.529Z,67.13
2023-05-11T20:05:13.467Z,64.20
2023-05-11T20:07:40.303Z,51.97
2023-05-11T20:10:10.756Z,45.42
2023-05-11T20:15:08.714Z,34.20
2023-05-11T20:17:35.999Z,28.98
2023-05-11T20:20:03.541Z,25.85
2023-05-11T20:22:31.834Z,19.73
2023-05-11T20:24:58.890Z,19.67
2023-05-11T20:27:26.140Z,17.05
2023-05-11T20:29:52.832Z,18.63
2023-05-11T20:32:19.739Z,23.77
2023-05-11T20:34:46.597Z,24.95
2023-05-11T20:37:14.306Z,24.50
2023-05-11T20:39:41.063Z,22.80
2023-05-11T20:42:08.768Z,21.58
2023-05-11T20:44:36.599Z,17.60
2023-05-11T20:47:04.808Z,14.10
2023-05-11T20:49:38.726Z,13.93
2023-05-11T20:52:07.684Z,14.40
2023-05-11T20:54:35.653Z,12.52
2023-05-11T20:57:04.178Z,11.52
2023-05-11T21:02:01.410Z,10.63
2023-05-11T21:04:29.769Z,10.52
2023-05-11T21:06:56.717Z,8.95
2023-05-11T21:09:23.584Z,10.00
2023-05-11T21:11:50.322Z,11.05
2023-05-11T21:14:17.061Z,9.80
2023-05-11T21:16:43.859Z,9.07
2023-05-11T21:19:10.740Z,9.82
2023-05-11T21:21:37.831Z,10.07
2023-05-11T21:24:06.116Z,11.18
2023-05-11T21:26:33.005Z,10.70
2023-05-11T21:28:59.903Z,9.93
2023-05-11T21:31:27.137Z,11.30
2023-05-11T21:33:54.393Z,10.30
2023-05-11T21:36:22.178Z,9.05
2023-05-11T21:38:49.082Z,9.43
2023-05-11T21:41:17.892Z,9.27
2023-05-11T21:43:44.814Z,8.52
2023-05-11T21:46:12.591Z,8.30
2023-05-11T21:48:39.681Z,8.40
2023-05-11T21:51:06.412Z,7.45
2023-05-11T21:53:33.158Z,7.20
2023-05-11T21:55:59.960Z,9.10
2023-05-11T21:58:27.522Z,6.72
2023-05-11T22:00:55.064Z,6.40
2023-05-11T22:03:21.908Z,6.55
2023-05-11T22:05:48.818Z,7.55
2023-05-11T22:08:16.080Z,5.50
2023-05-11T22:10:43.286Z,6.10
2023-05-11T22:13:10.459Z,5.90
2023-05-11T22:15:38.325Z,5.55
2023-05-11T22:18:05.273Z,5.43
2023-05-11T22:20:32.198Z,5.72
2023-05-11T22:22:59.429Z,4.82
2023-05-11T22:25:26.529Z,5.93
2023-05-11T22:27:53.398Z,5.00
2023-05-11T22:30:20.620Z,5.22
2023-05-11T22:32:47.668Z,5.65
2023-05-11T22:35:14.485Z,4.82
2023-05-11T22:37:41.601Z,4.53
2023-05-11T22:40:09.557Z,5.68
2023-05-11T22:42:36.301Z,4.82
2023-05-11T22:45:03.315Z,4.88
2023-05-11T22:47:30.155Z,4.88
2023-05-11T22:49:57.102Z,5.60
2023-05-11T22:52:25.141Z,4.68
2023-05-11T22:54:55.264Z,4.43
2023-05-11T22:57:23.953Z,4.47
2023-05-11T22:59:50.677Z,4.70
2023-05-11T23:02:17.938Z,4.57
2023-05-11T23:04:50.284Z,4.50
2023-05-11T23:07:17.023Z,4.85
2023-05-11T23:09:44.363Z,5.45
2023-05-11T23:12:12.096Z,4.80
2023-05-11T23:14:39.208Z,5.68
2023-05-11T23:17:07.505Z,5.00
2023-05-11T23:19:34.577Z,4.82
2023-05-11T23:22:01.651Z,5.10
2023-05-11T23:24:28.957Z,4.60
2023-05-11T23:26:56.068Z,4.70
2023-05-11T23:29:23.029Z,4.57
2023-05-11T23:31:50.995Z,5.00
2023-05-11T23:34:18.107Z,5.18
2023-05-11T23:36:44.924Z,4.93
2023-05-11T23:39:11.689Z,4.30
2023-05-11T23:41:38.958Z,4.95
2023-05-11T23:44:05.733Z,4.70
2023-05-11T23:46:32.658Z,4.70
2023-05-11T23:48:59.562Z,4.40
2023-05-11T23:51:26.282Z,5.03
2023-05-11T23:53:53.125Z,4.20
2023-05-11T23:56:19.937Z,4.90
2023-05-11T23:58:46.729Z,4.45
